createdAt,value
2017-04-29T00:00:02.832Z,1016.75
2017-04-29T00:05:02.862Z,1016.7
2017-04-29T00:10:03.730Z,1016.77
2017-04-29T00:15:03.559Z,1016.71
2017-04-29T00:20:03.381Z,1016.76
2017-04-29T00:25:03.152Z,1016.79
2017-04-29T00:30:02.723Z,1016.8
2017-04-29T00:35:03.536Z,1016.84
2017-04-29T00:40:06.321Z,1016.89
2017-04-29T00:45:03.062Z,1016.88
2017-04-29T00:50:03.689Z,1016.89
2017-04-29T00:55:03.543Z,1016.85
2017-04-29T01:00:03.319Z,1016.95
2017-04-29T01:05:02.964Z,1016.97
2017-04-29T01:10:02.781Z,1016.92
2017-04-29T01:15:03.605Z,1016.93
2017-04-29T01:20:03.277Z,1016.93
2017-04-29T01:25:02.947Z,1016.89
2017-04-29T01:30:02.770Z,1016.96
2017-04-29T01:35:03.505Z,1016.95
2017-04-29T01:40:03.325Z,1016.95
2017-04-29T01:45:02.892Z,1016.97
2017-04-29T01:50:02.781Z,1017.07
2017-04-29T01:55:03.493Z,1017.06
2017-04-29T02:00:03.308Z,1017.19
2017-04-29T02:05:03.197Z,1017.2
2017-04-29T02:10:03.028Z,1017.24
2017-04-29T02:15:02.820Z,1017.21
2017-04-29T02:20:03.651Z,1017.2
2017-04-29T02:25:03.347Z,1017.28
2017-04-29T02:30:03.044Z,1017.28
2017-04-29T02:35:03.013Z,1017.29
2017-04-29T02:40:03.667Z,1017.35
2017-04-29T02:45:03.296Z,1017.28
2017-04-29T02:50:02.978Z,1017.33
2017-04-29T02:55:02.785Z,1017.34
2017-04-29T03:00:03.539Z,1017.41
2017-04-29T03:05:03.359Z,1017.41
2017-04-29T03:10:03.161Z,1017.39
2017-04-29T03:15:02.810Z,1017.45
2017-04-29T03:20:03.551Z,1017.49
2017-04-29T03:25:03.365Z,1017.49
2017-04-29T03:30:03.139Z,1017.5
2017-04-29T03:35:02.805Z,1017.48
2017-04-29T03:40:03.695Z,1017.45
2017-04-29T03:45:03.450Z,1017.44
2017-04-29T03:50:03.176Z,1017.38
2017-04-29T03:55:02.934Z,1017.42
2017-04-29T04:00:02.761Z,1017.49
2017-04-29T04:05:03.603Z,1017.51
2017-04-29T04:10:03.425Z,1017.41
2017-04-29T04:15:03.279Z,1017.49
2017-04-29T04:20:02.951Z,1017.49
2017-04-29T04:25:03.758Z,1017.48
2017-04-29T04:30:02.926Z,1017.5
2017-04-29T04:35:02.719Z,1017.48
2017-04-29T04:40:03.626Z,1017.55
2017-04-29T04:45:03.178Z,1017.52
2017-04-29T04:50:02.874Z,1017.48
2017-04-29T04:55:03.561Z,1017.53
2017-04-29T05:00:03.345Z,1017.56
2017-04-29T05:05:03.133Z,1017.66
2017-04-29T05:10:02.710Z,1017.69
2017-04-29T05:15:03.373Z,1017.74
2017-04-29T05:20:02.955Z,1017.65
2017-04-29T05:25:03.598Z,1017.64
2017-04-29T05:30:03.150Z,1017.67
2017-04-29T05:35:02.791Z,1017.71
2017-04-29T05:40:03.649Z,1017.78
2017-04-29T05:45:03.391Z,1017.79
2017-04-29T05:50:03.050Z,1017.81
2017-04-29T05:55:02.900Z,1017.9
2017-04-29T06:00:03.505Z,1017.93
2017-04-29T06:05:03.229Z,1017.9
2017-04-29T06:10:02.903Z,1017.99
2017-04-29T06:15:03.565Z,1017.96
2017-04-29T06:20:03.358Z,1017.91
2017-04-29T06:25:03.125Z,1017.95
2017-04-29T06:30:02.925Z,1018.01
2017-04-29T06:35:03.634Z,1018.04
2017-04-29T06:40:03.455Z,1018.07
2017-04-29T06:45:03.147Z,1018.1
2017-04-29T06:50:02.913Z,1018.12
2017-04-29T06:55:02.898Z,1018.08
2017-04-29T07:00:03.424Z,1018.06
2017-04-29T07:05:03.061Z,1018.06
2017-04-29T07:10:02.922Z,1018.16
2017-04-29T07:15:03.588Z,1018.19
2017-04-29T07:20:03.608Z,1018.14
2017-04-29T07:25:03.260Z,1018.12
2017-04-29T07:30:02.873Z,1018.07
2017-04-29T07:35:02.731Z,1018.06
2017-04-29T07:40:03.532Z,1018.09
2017-04-29T07:45:03.303Z,1018.13
2017-04-29T07:50:03.015Z,1018.17
2017-04-29T07:55:02.796Z,1018.21
2017-04-29T08:00:03.443Z,1018.19
2017-04-29T08:05:03.095Z,1018.27
2017-04-29T08:10:02.839Z,1018.27
2017-04-29T08:15:03.654Z,1018.2
2017-04-29T08:20:03.242Z,1018.2
2017-04-29T08:25:03.097Z,1018.16
2017-04-29T08:30:02.678Z,1018.19
2017-04-29T08:35:03.433Z,1018.2
2017-04-29T08:40:03.367Z,1018.25
2017-04-29T08:45:03.172Z,1018.27
2017-04-29T08:50:02.788Z,1018.32
2017-04-29T08:55:03.477Z,1018.37
2017-04-29T09:00:03.231Z,1018.41
2017-04-29T09:05:02.864Z,1018.47
2017-04-29T09:10:03.609Z,1018.35
2017-04-29T09:15:03.356Z,1018.24
2017-04-29T09:20:02.976Z,1018.27
2017-04-29T09:25:03.191Z,1018.28
2017-04-29T09:30:02.729Z,1018.36
2017-04-29T09:35:02.802Z,1018.26
2017-04-29T09:40:03.198Z,1018.22
2017-04-29T09:45:03.315Z,1018.28
2017-04-29T09:50:03.398Z,1018.22
2017-04-29T09:55:03.587Z,1018.27
2017-04-29T10:00:02.703Z,1018.28
2017-04-29T10:05:03.523Z,1018.28
2017-04-29T10:10:02.696Z,1018.35
2017-04-29T10:15:03.582Z,1018.4
2017-04-29T10:20:02.811Z,1018.39
2017-04-29T10:25:03.261Z,1018.41
2017-04-29T10:30:03.580Z,1018.42
2017-04-29T10:35:03.413Z,1018.45
2017-04-29T10:40:03.072Z,1018.41
2017-04-29T10:45:03.424Z,1018.35
2017-04-29T10:50:02.795Z,1018.37
2017-04-29T10:55:02.785Z,1018.35
2017-04-29T11:00:03.138Z,1018.33
2017-04-29T11:05:03.188Z,1018.3
2017-04-29T11:10:03.579Z,1018.32
2017-04-29T11:15:03.175Z,1018.33
2017-04-29T11:20:03.327Z,1018.26
2017-04-29T11:25:02.848Z,1018.19
2017-04-29T11:30:03.452Z,1018.19
2017-04-29T11:35:02.838Z,1018.1
2017-04-29T11:40:02.781Z,1018.14
2017-04-29T11:45:03.543Z,1018.19
2017-04-29T11:50:03.143Z,1018.11
2017-04-29T11:55:03.023Z,1018.1
2017-04-29T12:00:03.026Z,1018.07
2017-04-29T12:05:03.327Z,1018.11
2017-04-29T12:10:03.041Z,1018.09
2017-04-29T12:15:02.894Z,1017.99
2017-04-29T12:20:03.233Z,1017.96
2017-04-29T12:25:02.903Z,1017.88
2017-04-29T12:30:03.523Z,1017.85
2017-04-29T12:35:03.290Z,1017.89
2017-04-29T12:40:02.857Z,1018
2017-04-29T12:45:03.539Z,1017.97
2017-04-29T12:50:03.653Z,1017.9
2017-04-29T12:55:02.916Z,1017.98
2017-04-29T13:00:03.336Z,1017.91
2017-04-29T13:05:03.157Z,1017.96
2017-04-29T13:10:02.868Z,1018
2017-04-29T13:15:03.262Z,1017.98
2017-04-29T13:20:02.705Z,1017.94
2017-04-29T13:25:03.255Z,1018.02
2017-04-29T13:30:03.376Z,1017.93
2017-04-29T13:35:03.015Z,1017.9
2017-04-29T13:40:03.437Z,1017.89
2017-04-29T13:45:03.649Z,1017.75
2017-04-29T13:50:03.034Z,1017.73
2017-04-29T13:55:03.328Z,1017.66
2017-04-29T14:00:02.738Z,1017.62
2017-04-29T14:05:03.429Z,1017.63
2017-04-29T14:10:02.938Z,1017.63
2017-04-29T14:15:03.458Z,1017.6
2017-04-29T14:20:02.961Z,1017.55
2017-04-29T14:25:03.552Z,1017.5
2017-04-29T14:30:03.083Z,1017.5
2017-04-29T14:35:02.895Z,1017.49
2017-04-29T14:40:03.023Z,1017.42
2017-04-29T14:45:03.357Z,1017.47
2017-04-29T14:50:02.910Z,1017.38
2017-04-29T14:55:02.695Z,1017.38
2017-04-29T15:00:02.985Z,1017.38
2017-04-29T15:05:03.230Z,1017.34
2017-04-29T15:10:03.462Z,1017.39
2017-04-29T15:15:02.773Z,1017.38
2017-04-29T15:20:03.012Z,1017.35
2017-04-29T15:25:03.366Z,1017.31
2017-04-29T15:30:03.479Z,1017.26
2017-04-29T15:35:03.143Z,1017.34
2017-04-29T15:40:03.374Z,1017.19
2017-04-29T15:45:02.953Z,1017.23
2017-04-29T15:50:03.658Z,1017.19
2017-04-29T15:55:03.120Z,1017.19
2017-04-29T16:00:02.809Z,1017.11
2017-04-29T16:05:02.860Z,1017.12
2017-04-29T16:10:03.236Z,1017.11
2017-04-29T16:15:02.959Z,1017.03
2017-04-29T16:20:03.500Z,1017
2017-04-29T16:25:03.660Z,1017.05
2017-04-29T16:30:02.870Z,1016.98
2017-04-29T16:35:02.943Z,1016.96
2017-04-29T16:40:03.010Z,1016.93
2017-04-29T16:45:03.488Z,1016.91
2017-04-29T16:50:03.623Z,1016.89
2017-04-29T16:55:03.678Z,1016.79
2017-04-29T17:00:03.379Z,1016.79
2017-04-29T17:05:03.417Z,1016.84
2017-04-29T17:10:03.529Z,1016.84
2017-04-29T17:15:02.655Z,1016.77
2017-04-29T17:20:02.654Z,1016.79
2017-04-29T17:25:02.838Z,1016.78
2017-04-29T17:30:02.837Z,1016.73
2017-04-29T17:35:03.646Z,1016.75
2017-04-29T17:40:02.788Z,1016.7
2017-04-29T17:45:03.546Z,1016.75
2017-04-29T17:50:03.416Z,1016.73
2017-04-29T17:55:03.376Z,1016.75
2017-04-29T18:00:03.233Z,1016.75
2017-04-29T18:05:03.012Z,1016.78
2017-04-29T18:10:02.685Z,1016.72
2017-04-29T18:15:03.360Z,1016.77
2017-04-29T18:20:03.150Z,1016.8
2017-04-29T18:25:02.845Z,1016.73
2017-04-29T18:30:02.724Z,1016.71
2017-04-29T18:35:03.356Z,1016.77
2017-04-29T18:40:03.207Z,1016.85
2017-04-29T18:45:03.038Z,1016.84
2017-04-29T18:50:02.807Z,1016.87
2017-04-29T18:55:02.765Z,1016.83
2017-04-29T19:00:02.773Z,1016.84
2017-04-29T19:05:03.513Z,1016.84
2017-04-29T19:10:03.304Z,1016.84
2017-04-29T19:15:03.049Z,1016.89
2017-04-29T19:20:03.099Z,1016.82
2017-04-29T19:25:02.911Z,1016.84
2017-04-29T19:30:02.756Z,1016.82
2017-04-29T19:35:02.723Z,1016.76
2017-04-29T19:40:03.641Z,1016.83
2017-04-29T19:45:03.471Z,1016.85
2017-04-29T19:50:03.133Z,1016.87
2017-04-29T19:55:03.104Z,1016.84
2017-04-29T20:00:02.849Z,1016.92
2017-04-29T20:05:02.679Z,1016.87
2017-04-29T20:10:03.333Z,1016.82
2017-04-29T20:15:02.981Z,1016.87
2017-04-29T20:20:02.714Z,1016.87
2017-04-29T20:25:03.539Z,1016.87
2017-04-29T20:30:03.309Z,1016.84
2017-04-29T20:35:02.925Z,1016.83
2017-04-29T20:40:02.798Z,1016.83
2017-04-29T20:45:03.485Z,1016.76
2017-04-29T20:50:03.272Z,1016.77
2017-04-29T20:55:03.064Z,1016.72
2017-04-29T21:00:02.848Z,1016.68
2017-04-29T21:05:03.693Z,1016.66
2017-04-29T21:10:03.346Z,1016.68
2017-04-29T21:15:03.105Z,1016.66
2017-04-29T21:20:02.904Z,1016.61
2017-04-29T21:25:03.539Z,1016.56
2017-04-29T21:30:03.219Z,1016.61
2017-04-29T21:35:02.972Z,1016.56
2017-04-29T21:40:02.761Z,1016.58
2017-04-29T21:45:03.387Z,1016.56
2017-04-29T21:50:02.969Z,1016.59
2017-04-29T21:55:03.627Z,1016.58
2017-04-29T22:00:03.242Z,1016.64
2017-04-29T22:05:02.991Z,1016.58
2017-04-29T22:10:02.747Z,1016.56
2017-04-29T22:15:03.534Z,1016.57
2017-04-29T22:20:03.371Z,1016.61
2017-04-29T22:25:03.149Z,1016.58
2017-04-29T22:30:02.739Z,1016.65
2017-04-29T22:35:03.376Z,1016.63
2017-04-29T22:40:03.192Z,1016.58
2017-04-29T22:45:02.948Z,1016.59
2017-04-29T22:50:03.685Z,1016.59
2017-04-29T22:55:03.427Z,1016.62
2017-04-29T23:00:03.178Z,1016.61
2017-04-29T23:05:02.981Z,1016.61
2017-04-29T23:10:02.802Z,1016.62
2017-04-29T23:15:03.445Z,1016.53
2017-04-29T23:20:03.115Z,1016.52
2017-04-29T23:25:02.807Z,1016.46
2017-04-29T23:30:03.531Z,1016.39
2017-04-29T23:35:03.296Z,1016.37
2017-04-29T23:40:03.110Z,1016.39
2017-04-29T23:45:02.798Z,1016.37
2017-04-29T23:50:03.483Z,1016.4
2017-04-29T23:55:03.423Z,1016.39
